»·PEaware :: AAL308 KMIA-TXKF

AAL308 :: KMIA-TXKF

FLIGHT INFORMATION

Flight Status: Arrived
Operator:
American Airlines
More flights by this operator :: More flights under this callsign
Pilot: Anonymous 14085 (14085)
Aircraft: BOEING 737-800
(B738)
More flights by this aircraft type
Origin: KMIA Miami Intl
United States
Destination: TXKF Bermuda Intl
Bermuda
More flights between these airports :: More routes between these airports
Route: VALLY2 VALLY ZFP BR10L HAANA SLEMA M328 ANTIG POPOP1
File this flight plan on PilotEdge
Remarks: PBN / A1B1C1D1S1S2 DOF / 180106 REG / N806SB EET / KZWY0041 OPR / AAL PER / C RMK / TCAS SIMBRIEF
Altitude:
(Current/Filed)
35,000ft
Speed:
(Current/Filed)
447kts
Departed: 06-Jan-18 01:02 PM
Arrived: 06-Jan-18 02:59 PM
Distance/Time
Traveled:
906nm/1:56
Distance/Time
To Go:
Arrived

Flight Plot

Page will automatically refresh every two minutes.

Flight plan parsing failed; only flown route is shown


Map Options




Map Legend


Flown Route
Filed Route
Departure Airport
Arrival Airport
Navaid (VOR, NDB)
Fix

Horizontal Profiles

Position Reports

Time Latitude Longitude Heading Altitude Ground
Speed
06-Jan-18 12:22 25.796603 -80.281002 13 13ft 0kts
06-Jan-18 12:23 25.796603 -80.281002 13 13ft 0kts
06-Jan-18 12:24 25.796603 -80.281002 13 13ft 0kts
06-Jan-18 12:25 25.796603 -80.281002 13 13ft 0kts
06-Jan-18 12:26 25.796603 -80.281002 13 13ft 0kts
06-Jan-18 12:27 25.796603 -80.281002 13 13ft 0kts
06-Jan-18 12:28 25.796603 -80.281002 13 13ft 0kts
06-Jan-18 12:29 25.796603 -80.281002 13 13ft 0kts
06-Jan-18 12:30 25.796603 -80.281002 13 13ft 0kts
06-Jan-18 12:31 25.796603 -80.281002 13 13ft 0kts
06-Jan-18 12:32 25.796603 -80.281002 13 13ft 0kts
06-Jan-18 12:33 25.796603 -80.281002 13 13ft 0kts
06-Jan-18 12:34 25.796603 -80.281002 13 13ft 0kts
06-Jan-18 12:35 25.796603 -80.281002 13 13ft 0kts
06-Jan-18 12:36 25.796603 -80.281002 13 13ft 0kts
06-Jan-18 12:37 25.796603 -80.281002 13 13ft 0kts
06-Jan-18 12:38 25.796603 -80.281002 13 13ft 0kts
06-Jan-18 12:39 25.796603 -80.281002 13 13ft 0kts
06-Jan-18 12:40 25.796603 -80.281002 13 13ft 0kts
06-Jan-18 12:41 25.796603 -80.281002 13 13ft 0kts
06-Jan-18 12:42 25.796603 -80.281002 13 13ft 0kts
06-Jan-18 12:43 25.796603 -80.281002 13 13ft 0kts
06-Jan-18 12:44 25.796603 -80.281002 13 13ft 0kts
06-Jan-18 12:45 25.796603 -80.281002 13 13ft 0kts
06-Jan-18 12:46 25.796603 -80.281002 13 13ft 0kts
06-Jan-18 12:47 25.796603 -80.281002 13 13ft 0kts
06-Jan-18 12:48 25.796603 -80.281002 13 13ft 0kts
06-Jan-18 12:49 25.796603 -80.281002 13 13ft 0kts
06-Jan-18 12:50 25.796603 -80.281002 13 13ft 0kts
06-Jan-18 12:51 25.796603 -80.281002 13 13ft 0kts
06-Jan-18 12:52 25.796603 -80.281002 13 13ft 0kts
06-Jan-18 12:53 25.796603 -80.281002 13 13ft 0kts
06-Jan-18 12:54 25.796184 -80.281105 344 13ft 1kts
06-Jan-18 12:55 25.796064 -80.280949 292 13ft 0kts
06-Jan-18 12:56 25.796064 -80.280949 292 13ft 0kts
06-Jan-18 12:57 25.796064 -80.280949 292 13ft 0kts
06-Jan-18 12:58 25.796064 -80.280949 292 13ft 0kts
06-Jan-18 12:59 25.796064 -80.280949 292 13ft 0kts
06-Jan-18 13:00 25.796064 -80.280949 292 13ft 0kts
06-Jan-18 13:01 25.796064 -80.280949 292 13ft 0kts
06-Jan-18 13:02 25.796450 -80.282033 288 13ft 10kts
06-Jan-18 13:03 25.796512 -80.285229 266 13ft 8kts
06-Jan-18 13:04 25.796851 -80.288074 354 13ft 10kts
06-Jan-18 13:05 25.800118 -80.288802 271 13ft 14kts
06-Jan-18 13:06 25.799827 -80.296133 266 13ft 26kts
06-Jan-18 13:07 25.800729 -80.300618 86 13ft 4kts
06-Jan-18 13:08 25.801200 -80.289505 87 14ft 120kts
06-Jan-18 13:09 25.802969 -80.242124 84 1280ft 164kts
06-Jan-18 13:10 25.805677 -80.179475 85 2490ft 251kts
06-Jan-18 13:11 25.808817 -80.100561 85 5379ft 263kts
06-Jan-18 13:12 25.828396 -80.024279 52 8465ft 267kts
06-Jan-18 13:13 25.875070 -79.956742 48 10831ft 300kts
06-Jan-18 13:14 25.929795 -79.877552 49 12822ft 343kts
06-Jan-18 13:15 25.990333 -79.789846 51 15362ft 369kts
06-Jan-18 13:16 26.053081 -79.696224 53 17860ft 390kts
06-Jan-18 13:17 26.118577 -79.596038 53 20105ft 414kts
06-Jan-18 13:18 26.187675 -79.489536 53 22179ft 437kts
06-Jan-18 13:19 26.260442 -79.377362 53 24110ft 459kts
06-Jan-18 13:20 26.336704 -79.260052 53 25896ft 479kts
06-Jan-18 13:21 26.414656 -79.137647 64 27783ft 488kts
06-Jan-18 13:22 26.456549 -78.995156 77 29622ft 487kts
06-Jan-18 13:23 26.496822 -78.851394 77 31428ft 486kts
06-Jan-18 13:24 26.530399 -78.707056 87 33053ft 477kts
06-Jan-18 13:25 26.553472 -78.561602 86 34536ft 474kts
06-Jan-18 13:26 26.577009 -78.416882 86 35342ft 483kts
06-Jan-18 13:27 26.601668 -78.267027 85 35327ft 512kts
06-Jan-18 13:28 26.628212 -78.106728 85 35328ft 539kts
06-Jan-18 13:29 26.655544 -77.942336 85 35321ft 538kts
06-Jan-18 13:30 26.678695 -77.777568 88 35325ft 536kts
06-Jan-18 13:31 26.699736 -77.612869 87 35329ft 536kts
06-Jan-18 13:32 26.721127 -77.447707 87 35333ft 537kts
06-Jan-18 13:33 26.749482 -77.283222 81 35315ft 542kts
06-Jan-18 13:34 26.784614 -77.120024 81 35320ft 541kts
06-Jan-18 13:35 26.819401 -76.956336 81 35324ft 541kts
06-Jan-18 13:36 26.854279 -76.792967 81 35326ft 541kts
06-Jan-18 13:37 26.889356 -76.629551 81 35331ft 541kts
06-Jan-18 13:38 26.924695 -76.465736 80 35335ft 541kts
06-Jan-18 13:39 26.960315 -76.302048 79 35315ft 542kts
06-Jan-18 13:40 27.038859 -76.157368 54 35323ft 550kts
06-Jan-18 13:41 27.125413 -76.016450 55 35310ft 549kts
06-Jan-18 13:42 27.211312 -75.874769 55 35316ft 550kts
06-Jan-18 13:43 27.297374 -75.732970 55 35320ft 550kts
06-Jan-18 13:44 27.383284 -75.591647 55 35324ft 550kts
06-Jan-18 13:45 27.469659 -75.449792 55 35328ft 550kts
06-Jan-18 13:46 27.556123 -75.308108 55 35311ft 549kts
06-Jan-18 13:47 27.639917 -75.164928 57 35317ft 550kts
06-Jan-18 13:48 27.723799 -75.020946 56 35321ft 550kts
06-Jan-18 13:49 27.807777 -74.877071 56 35326ft 548kts
06-Jan-18 13:50 27.890944 -74.734190 56 35275ft 546kts
06-Jan-18 13:51 27.973905 -74.590684 56 35278ft 546kts
06-Jan-18 13:52 28.056768 -74.447501 56 35282ft 546kts
06-Jan-18 13:53 28.139913 -74.304174 56 35253ft 545kts
06-Jan-18 13:54 28.223193 -74.160882 56 35257ft 545kts
06-Jan-18 13:55 28.304668 -74.016159 58 35261ft 545kts
06-Jan-18 13:56 28.383462 -73.869638 58 35265ft 545kts
06-Jan-18 13:57 28.462106 -73.723189 58 35268ft 544kts
06-Jan-18 13:58 28.541168 -73.576210 58 35272ft 544kts
06-Jan-18 13:59 28.620088 -73.429764 58 35276ft 544kts
06-Jan-18 14:00 28.699071 -73.283599 58 35263ft 543kts
06-Jan-18 14:01 28.778234 -73.137325 58 35265ft 543kts
06-Jan-18 14:02 28.857640 -72.990795 58 35268ft 543kts
06-Jan-18 14:03 28.936875 -72.844848 57 35272ft 543kts
06-Jan-18 14:04 29.016467 -72.698516 57 35276ft 543kts
06-Jan-18 14:05 29.095964 -72.552633 57 35280ft 542kts
06-Jan-18 14:06 29.175778 -72.406481 57 35260ft 546kts
06-Jan-18 14:07 29.258512 -72.255364 58 35259ft 571kts
06-Jan-18 14:08 29.342747 -72.101718 58 35258ft 570kts
06-Jan-18 14:09 29.426887 -71.948500 58 35322ft 569kts
06-Jan-18 14:10 29.511205 -71.795260 57 35457ft 570kts
06-Jan-18 14:11 29.595850 -71.641634 56 35242ft 574kts
06-Jan-18 14:12 29.681093 -71.487446 57 35253ft 570kts
06-Jan-18 14:13 29.766154 -71.333785 57 35244ft 571kts
06-Jan-18 14:14 29.851708 -71.179791 57 35239ft 571kts
06-Jan-18 14:15 29.937180 -71.026028 57 35244ft 571kts
06-Jan-18 14:16 30.023112 -70.871738 57 35249ft 572kts
06-Jan-18 14:17 30.109001 -70.717761 56 35250ft 578kts
06-Jan-18 14:18 30.195487 -70.563206 56 35242ft 572kts
06-Jan-18 14:19 30.281802 -70.409179 56 35247ft 572kts
06-Jan-18 14:20 30.366497 -70.258534 54 35232ft 556kts
06-Jan-18 14:21 30.446231 -70.104859 57 35233ft 559kts
06-Jan-18 14:22 30.525472 -69.950420 57 35238ft 559kts
06-Jan-18 14:23 30.605239 -69.795365 57 35237ft 568kts
06-Jan-18 14:24 30.685306 -69.640062 57 35248ft 559kts
06-Jan-18 14:25 30.765233 -69.485398 56 35252ft 560kts
06-Jan-18 14:26 30.845414 -69.330619 57 35241ft 560kts
06-Jan-18 14:27 30.925454 -69.175679 58 35238ft 561kts
06-Jan-18 14:28 31.004119 -69.018516 58 35242ft 561kts
06-Jan-18 14:29 31.082919 -68.861085 57 35249ft 562kts
06-Jan-18 14:30 31.160637 -68.706216 57 35240ft 562kts
06-Jan-18 14:31 31.239886 -68.548659 57 35244ft 563kts
06-Jan-18 14:32 31.311913 -68.405770 57 35248ft 563kts
06-Jan-18 14:33 31.390761 -68.249944 57 35229ft 563kts
06-Jan-18 14:34 31.457860 -68.114812 58 35233ft 564kts
06-Jan-18 14:35 31.516718 -67.945758 75 35231ft 564kts
06-Jan-18 14:36 31.562415 -67.769758 74 35243ft 565kts
06-Jan-18 14:37 31.609189 -67.594176 74 35248ft 565kts
06-Jan-18 14:38 31.656161 -67.418865 73 35253ft 566kts
06-Jan-18 14:39 31.703627 -67.243002 74 35234ft 566kts
06-Jan-18 14:40 31.751289 -67.067023 74 35238ft 567kts
06-Jan-18 14:41 31.798057 -66.889700 75 35249ft 569kts
06-Jan-18 14:42 31.843058 -66.712309 75 35248ft 568kts
06-Jan-18 14:43 31.888107 -66.534475 75 35253ft 568kts
06-Jan-18 14:44 31.932215 -66.361338 75 34525ft 536kts
06-Jan-18 14:45 31.967807 -66.222706 75 32438ft 521kts
06-Jan-18 14:46 32.009266 -66.061358 76 30029ft 536kts
06-Jan-18 14:47 32.053719 -65.889376 76 27649ft 546kts
06-Jan-18 14:48 32.097426 -65.721160 76 25239ft 528kts
06-Jan-18 14:49 32.157862 -65.567277 77 22746ft 507kts
06-Jan-18 14:50 32.150834 -65.413939 102 20269ft 463kts
06-Jan-18 14:51 32.155253 -65.262775 89 17777ft 457kts
06-Jan-18 14:52 32.168081 -65.116402 87 15238ft 440kts
06-Jan-18 14:53 32.181163 -64.975851 86 12751ft 423kts
06-Jan-18 14:54 32.193840 -64.841618 85 10530ft 399kts
06-Jan-18 14:55 32.206657 -64.708075 84 9449ft 396kts
06-Jan-18 14:56 32.218044 -64.590183 82 7705ft 330kts
06-Jan-18 14:57 32.235020 -64.510214 46 6013ft 283kts
06-Jan-18 14:58 32.295020 -64.440805 17 3887ft 241kts
06-Jan-18 14:59 32.339706 -64.467983 274 2261ft 195kts
06-Jan-18 15:00 32.337880 -64.515961 276 1482ft 144kts
06-Jan-18 15:01 32.344130 -64.562857 281 1501ft 147kts
06-Jan-18 15:02 32.353288 -64.617424 281 748ft 138kts
06-Jan-18 15:03 32.359690 -64.653101 282 207ft 132kts
06-Jan-18 15:04 32.365208 -64.685499 284 20ft 48kts
06-Jan-18 15:05 32.365266 -64.694402 249 19ft 15kts
06-Jan-18 15:06 32.362778 -64.700197 212 19ft 23kts
06-Jan-18 15:07 32.360194 -64.703184 152 19ft 0kts
06-Jan-18 15:08 32.360031 -64.703087 153 19ft 0kts
06-Jan-18 15:09 32.360031 -64.703087 153 19ft 0kts

Navigation Log

Ident Type
Flight plan parsing failed, navigation log unavailable